createdAt,value
2018-11-23T00:00:29.526Z,12.13
2018-11-23T00:02:58.870Z,11.63
2018-11-23T00:05:27.593Z,11.60
2018-11-23T00:07:57.112Z,11.17
2018-11-23T00:10:27.260Z,10.10
2018-11-23T00:12:55.952Z,10.03
2018-11-23T00:15:25.098Z,9.63
2018-11-23T00:17:53.914Z,9.13
2018-11-23T00:20:24.845Z,11.17
2018-11-23T00:22:53.674Z,9.47
2018-11-23T00:25:23.278Z,8.77
2018-11-23T00:27:52.238Z,9.33
2018-11-23T00:30:23.263Z,9.00
2018-11-23T00:32:52.518Z,9.93
2018-11-23T00:35:22.569Z,8.90
2018-11-23T00:37:51.813Z,9.10
2018-11-23T00:40:21.852Z,9.23
2018-11-23T00:42:50.970Z,8.77
2018-11-23T00:45:19.692Z,9.37
2018-11-23T00:47:48.877Z,8.80
2018-11-23T00:50:19.063Z,9.17
2018-11-23T00:52:48.041Z,9.70
2018-11-23T00:55:17.890Z,9.20
2018-11-23T00:57:46.795Z,9.13
2018-11-23T01:00:19.019Z,8.60
2018-11-23T01:02:47.630Z,8.70
2018-11-23T01:05:17.513Z,9.20
2018-11-23T01:07:46.866Z,8.90
2018-11-23T01:10:17.339Z,8.40
2018-11-23T01:12:47.109Z,8.80
2018-11-23T01:15:16.080Z,8.87
2018-11-23T01:17:45.014Z,8.40
2018-11-23T01:20:16.826Z,8.53
2018-11-23T01:22:45.877Z,8.27
2018-11-23T01:25:15.791Z,8.53
2018-11-23T01:27:45.612Z,7.63
2018-11-23T01:30:23.484Z,8.10
2018-11-23T01:32:52.122Z,7.87
2018-11-23T01:35:20.686Z,8.27
2018-11-23T01:37:49.514Z,6.97
2018-11-23T01:40:22.356Z,7.73
2018-11-23T01:42:51.290Z,7.53
2018-11-23T01:45:20.066Z,6.77
2018-11-23T01:47:48.773Z,7.10
2018-11-23T01:50:19.173Z,8.10
2018-11-23T01:52:48.505Z,7.60
2018-11-23T01:55:18.130Z,7.57
2018-11-23T01:57:47.325Z,7.37
2018-11-23T02:00:17.597Z,7.57
2018-11-23T02:02:46.759Z,8.03
2018-11-23T02:05:15.707Z,8.07
2018-11-23T02:07:44.478Z,7.30
2018-11-23T02:10:14.698Z,8.03
2018-11-23T02:12:43.761Z,8.70
2018-11-23T02:15:16.156Z,8.10
2018-11-23T02:17:45.205Z,8.53
2018-11-23T02:20:15.197Z,7.60
2018-11-23T02:22:44.011Z,8.53
2018-11-23T02:25:12.815Z,8.10
2018-11-23T02:27:41.558Z,7.30
2018-11-23T02:30:14.249Z,7.80
2018-11-23T02:32:43.379Z,7.67
2018-11-23T02:35:12.717Z,7.80
2018-11-23T02:37:41.631Z,8.73
2018-11-23T02:40:12.190Z,7.97
2018-11-23T02:42:40.748Z,8.27
2018-11-23T02:45:11.847Z,7.97
2018-11-23T02:47:41.140Z,8.53
2018-11-23T02:50:09.973Z,7.80
2018-11-23T02:52:39.257Z,7.93
2018-11-23T02:55:08.987Z,8.07
2018-11-23T02:57:37.845Z,8.00
2018-11-23T03:00:09.478Z,8.23
2018-11-23T03:02:38.208Z,7.80
2018-11-23T03:05:08.231Z,7.67
2018-11-23T03:07:37.139Z,7.63
2018-11-23T03:10:06.579Z,8.10
2018-11-23T03:12:35.400Z,7.53
2018-11-23T03:15:04.371Z,7.43
2018-11-23T03:17:32.993Z,6.57
2018-11-23T03:20:01.675Z,6.70
2018-11-23T03:22:30.389Z,7.37
2018-11-23T03:24:59.149Z,7.00
2018-11-23T03:27:27.770Z,7.13
2018-11-23T03:29:56.482Z,7.47
2018-11-23T03:32:25.105Z,6.90
2018-11-23T03:34:53.840Z,7.20
2018-11-23T03:37:22.393Z,7.43
2018-11-23T03:39:51.159Z,7.70
2018-11-23T03:42:20.102Z,7.50
2018-11-23T03:44:49.037Z,7.37
2018-11-23T03:47:17.932Z,8.20
2018-11-23T03:49:46.705Z,7.63
2018-11-23T03:52:15.541Z,8.90
2018-11-23T03:54:44.500Z,8.47
2018-11-23T03:57:13.193Z,7.53
2018-11-23T03:59:42.054Z,7.63
2018-11-23T04:02:10.846Z,7.53
2018-11-23T04:04:39.754Z,7.50
2018-11-23T04:07:08.640Z,7.17
2018-11-23T04:09:37.427Z,7.30
2018-11-23T04:12:06.215Z,7.90
2018-11-23T04:14:35.090Z,6.93
2018-11-23T04:17:04.107Z,7.67
2018-11-23T04:19:32.848Z,6.93
2018-11-23T04:22:01.966Z,7.10
2018-11-23T04:24:30.632Z,7.70
2018-11-23T04:26:59.567Z,7.20
2018-11-23T04:29:28.278Z,7.53
2018-11-23T04:31:57.214Z,7.17
2018-11-23T04:34:26.668Z,7.63
2018-11-23T04:36:55.691Z,7.40
2018-11-23T04:39:24.494Z,7.67
2018-11-23T04:41:53.262Z,7.37
2018-11-23T04:44:21.967Z,7.70
2018-11-23T04:46:50.737Z,7.37
2018-11-23T04:49:19.557Z,7.77
2018-11-23T04:51:48.368Z,8.27
2018-11-23T04:54:17.233Z,8.03
2018-11-23T04:56:45.882Z,7.80
2018-11-23T04:59:14.626Z,8.40
2018-11-23T05:01:43.442Z,8.43
2018-11-23T05:04:12.062Z,7.93
2018-11-23T05:06:40.882Z,8.33
2018-11-23T05:09:10.238Z,9.43
2018-11-23T05:11:39.169Z,8.77
2018-11-23T05:14:08.217Z,10.03
2018-11-23T05:16:37.014Z,9.40
2018-11-23T05:19:06.061Z,10.57
2018-11-23T05:21:35.028Z,9.57
2018-11-23T05:24:03.758Z,8.83
2018-11-23T05:26:32.561Z,9.70
2018-11-23T05:29:01.295Z,9.80
2018-11-23T05:31:30.055Z,10.77
2018-11-23T05:33:58.947Z,10.27
2018-11-23T05:36:27.754Z,9.90
2018-11-23T05:38:56.401Z,10.43
2018-11-23T05:41:25.611Z,9.20
2018-11-23T05:43:54.275Z,10.37
2018-11-23T05:46:22.889Z,9.30
2018-11-23T05:48:51.797Z,9.60
2018-11-23T05:51:20.372Z,10.67
2018-11-23T05:53:49.253Z,10.17
2018-11-23T05:56:17.985Z,10.40
2018-11-23T05:58:46.785Z,10.50
2018-11-23T06:01:15.571Z,10.57
2018-11-23T06:03:44.417Z,11.30
2018-11-23T06:06:13.287Z,10.93
2018-11-23T06:08:42.186Z,11.40
2018-11-23T06:11:10.976Z,11.07
2018-11-23T06:13:39.843Z,10.60
2018-11-23T06:16:08.587Z,10.67
2018-11-23T06:18:37.559Z,13.17
2018-11-23T06:21:06.443Z,19.90
2018-11-23T06:23:35.390Z,21.07
2018-11-23T06:26:15.860Z,21.73
2018-11-23T06:28:44.764Z,18.77
2018-11-23T06:31:13.866Z,18.77
2018-11-23T06:33:43.979Z,20.57
2018-11-23T06:36:12.632Z,22.23
2018-11-23T06:38:41.482Z,18.63
2018-11-23T06:41:10.730Z,17.57
2018-11-23T06:43:39.098Z,16.00
2018-11-23T06:46:09.381Z,14.63
2018-11-23T06:48:38.249Z,14.53
2018-11-23T06:51:07.181Z,15.50
2018-11-23T06:53:35.915Z,15.10
2018-11-23T06:56:40.200Z,15.37
2018-11-23T06:59:43.748Z,15.43
2018-11-23T07:02:12.512Z,16.17
2018-11-23T07:04:41.198Z,15.90
2018-11-23T07:07:10.098Z,17.17
2018-11-23T07:09:38.875Z,17.67
2018-11-23T07:12:07.650Z,20.37
2018-11-23T07:14:36.304Z,20.23
2018-11-23T07:17:05.348Z,19.73
2018-11-23T07:19:34.059Z,21.93
2018-11-23T07:22:03.029Z,22.03
2018-11-23T07:24:31.965Z,20.40
2018-11-23T07:27:00.925Z,20.20
2018-11-23T07:29:29.805Z,20.37
2018-11-23T07:31:58.628Z,19.43
2018-11-23T07:34:27.582Z,19.93
2018-11-23T07:36:56.250Z,39.47
2018-11-23T07:40:39.304Z,21.57
2018-11-23T07:43:08.053Z,19.77
2018-11-23T07:45:36.945Z,17.57
2018-11-23T07:48:06.064Z,18.13
2018-11-23T07:50:35.664Z,18.23
2018-11-23T07:53:04.413Z,19.77
2018-11-23T07:55:33.135Z,21.33
2018-11-23T07:58:02.044Z,21.50
2018-11-23T08:00:30.755Z,23.37
2018-11-23T08:02:59.532Z,24.10
2018-11-23T08:05:28.352Z,24.50
2018-11-23T08:07:57.222Z,25.70
2018-11-23T08:10:25.234Z,24.73
2018-11-23T08:12:53.997Z,26.27
2018-11-23T08:15:24.912Z,24.60
2018-11-23T08:17:53.794Z,24.63
2018-11-23T08:20:23.383Z,23.87
2018-11-23T08:22:52.075Z,24.67
2018-11-23T08:25:21.970Z,22.60
2018-11-23T08:27:51.730Z,22.37
2018-11-23T08:30:23.022Z,21.70
2018-11-23T08:32:51.962Z,20.73
2018-11-23T08:35:25.960Z,17.37
2018-11-23T08:37:54.772Z,17.30
2018-11-23T08:40:25.718Z,15.80
2018-11-23T08:42:54.894Z,12.97
2018-11-23T08:45:24.708Z,13.20
2018-11-23T08:47:53.399Z,9.37
2018-11-23T08:50:25.063Z,9.17
2018-11-23T08:52:53.774Z,10.70
2018-11-23T08:55:22.790Z,12.13
2018-11-23T08:57:51.517Z,11.60
2018-11-23T09:00:24.737Z,9.90
2018-11-23T09:02:54.910Z,10.83
2018-11-23T09:05:23.672Z,11.20
2018-11-23T09:07:53.647Z,10.03
2018-11-23T09:10:25.067Z,10.37
2018-11-23T09:12:56.022Z,9.47
2018-11-23T09:15:24.911Z,10.13
2018-11-23T09:17:53.673Z,8.10
2018-11-23T09:20:22.519Z,9.90
2018-11-23T09:22:51.374Z,15.93
2018-11-23T09:25:21.404Z,14.40
2018-11-23T09:27:50.251Z,14.37
2018-11-23T09:30:21.503Z,16.00
2018-11-23T09:32:51.149Z,10.20
2018-11-23T09:35:19.909Z,11.20
2018-11-23T09:37:49.123Z,10.60
2018-11-23T09:40:19.168Z,10.03
2018-11-23T09:42:47.970Z,16.77
2018-11-23T09:45:19.169Z,16.83
2018-11-23T09:47:48.854Z,18.13
2018-11-23T09:50:18.957Z,13.53
2018-11-23T09:52:48.817Z,17.33
2018-11-23T09:55:18.029Z,19.80
2018-11-23T09:57:46.774Z,18.60
2018-11-23T10:00:20.593Z,16.23
2018-11-23T10:02:50.282Z,9.43
2018-11-23T10:05:19.525Z,8.83
2018-11-23T10:07:49.689Z,9.83
2018-11-23T10:10:19.274Z,11.27
2018-11-23T10:12:48.006Z,10.00
2018-11-23T10:15:17.833Z,9.73
2018-11-23T10:17:46.566Z,6.63
2018-11-23T10:20:18.398Z,6.17
2018-11-23T10:22:47.529Z,6.77
2018-11-23T10:25:17.815Z,7.67
2018-11-23T10:27:46.796Z,6.73
2018-11-23T10:30:17.595Z,5.63
2018-11-23T10:32:47.177Z,5.47
2018-11-23T10:35:15.964Z,5.50
2018-11-23T10:37:45.754Z,6.07
2018-11-23T10:40:16.552Z,5.00
2018-11-23T10:42:45.438Z,5.00
2018-11-23T10:45:17.896Z,5.57
2018-11-23T10:47:46.943Z,5.57
2018-11-23T10:50:17.092Z,5.20
2018-11-23T10:52:46.058Z,6.50
2018-11-23T10:55:16.701Z,5.77
2018-11-23T10:57:45.510Z,5.80
2018-11-23T11:00:21.679Z,4.93
2018-11-23T11:02:56.676Z,6.85
2018-11-23T11:06:06.052Z,7.43
2018-11-23T11:08:35.028Z,6.67
2018-11-23T11:11:04.054Z,7.07
2018-11-23T11:13:32.789Z,7.33
2018-11-23T11:16:01.731Z,7.33
2018-11-23T11:18:30.629Z,7.53
2018-11-23T11:20:59.403Z,8.10
2018-11-23T11:23:28.126Z,7.30
2018-11-23T11:25:56.762Z,7.10
2018-11-23T11:28:25.687Z,7.87
2018-11-23T11:30:54.321Z,6.73
2018-11-23T11:33:23.110Z,6.90
2018-11-23T11:35:51.817Z,6.70
2018-11-23T11:38:20.679Z,6.60
2018-11-23T11:40:49.528Z,6.47
2018-11-23T11:43:18.138Z,6.43
2018-11-23T11:45:46.905Z,7.53
2018-11-23T11:48:15.709Z,7.03
2018-11-23T11:50:44.400Z,7.80
2018-11-23T11:53:13.298Z,7.37
2018-11-23T11:55:41.971Z,8.23
2018-11-23T11:58:10.818Z,9.27
2018-11-23T12:00:39.776Z,9.67
2018-11-23T12:03:08.574Z,10.57
2018-11-23T12:05:37.417Z,12.13
2018-11-23T12:08:06.564Z,13.07
2018-11-23T12:10:35.352Z,13.53
2018-11-23T12:13:04.093Z,13.60
2018-11-23T12:15:32.921Z,13.90
2018-11-23T12:18:01.675Z,12.90
2018-11-23T12:20:30.292Z,13.37
2018-11-23T12:22:59.187Z,13.30
2018-11-23T12:25:28.073Z,12.80
2018-11-23T12:27:56.854Z,11.43
2018-11-23T12:30:25.750Z,11.07
2018-11-23T12:32:55.131Z,11.63
2018-11-23T12:35:24.211Z,11.87
2018-11-23T12:37:53.033Z,11.47
2018-11-23T12:40:21.892Z,12.00
2018-11-23T12:42:51.109Z,11.33
2018-11-23T12:45:21.019Z,9.97
2018-11-23T12:47:49.832Z,10.03
2018-11-23T12:50:20.156Z,11.00
2018-11-23T12:52:49.014Z,9.97
2018-11-23T12:55:18.301Z,10.50
2018-11-23T12:57:47.080Z,14.37
2018-11-23T13:00:24.819Z,13.87
2018-11-23T13:02:57.226Z,14.93
2018-11-23T13:05:26.702Z,14.10
2018-11-23T13:07:56.609Z,14.37
2018-11-23T13:10:25.801Z,14.57
2018-11-23T13:12:55.192Z,13.67
2018-11-23T13:15:23.903Z,12.53
2018-11-23T13:17:52.789Z,13.77
2018-11-23T13:20:21.459Z,12.47
2018-11-23T13:22:50.385Z,11.47
2018-11-23T13:25:20.698Z,12.43
2018-11-23T13:27:49.345Z,11.90
2018-11-23T13:30:20.175Z,10.13
2018-11-23T13:32:48.966Z,11.53
2018-11-23T13:35:18.789Z,10.30
2018-11-23T13:37:47.606Z,10.53
2018-11-23T13:40:17.493Z,10.10
2018-11-23T13:42:47.129Z,9.20
2018-11-23T13:45:17.921Z,8.70
2018-11-23T13:47:47.106Z,9.30
2018-11-23T13:50:17.121Z,9.43
2018-11-23T13:52:46.840Z,9.07
2018-11-23T13:55:15.736Z,9.50
2018-11-23T13:57:44.307Z,10.30
2018-11-23T14:00:16.432Z,9.90
2018-11-23T14:02:45.554Z,9.47
2018-11-23T14:05:15.601Z,10.80
2018-11-23T14:07:45.448Z,9.73
2018-11-23T14:10:15.506Z,10.43
2018-11-23T14:12:44.514Z,9.83
2018-11-23T14:15:16.306Z,9.53
2018-11-23T14:17:45.975Z,9.17
2018-11-23T14:20:15.552Z,9.30
2018-11-23T14:22:44.213Z,9.50
2018-11-23T14:25:14.487Z,9.63
2018-11-23T14:27:43.717Z,9.70
2018-11-23T14:30:15.663Z,9.30
2018-11-23T14:32:44.569Z,8.60
2018-11-23T14:35:14.706Z,9.20
2018-11-23T14:37:44.100Z,9.27
2018-11-23T14:40:13.265Z,9.53
2018-11-23T14:42:42.964Z,9.60
2018-11-23T14:45:16.894Z,9.80
2018-11-23T14:47:45.879Z,11.00
2018-11-23T14:50:18.473Z,11.63
2018-11-23T14:52:48.603Z,12.00
2018-11-23T14:55:17.685Z,11.30
2018-11-23T14:57:46.660Z,11.37
2018-11-23T15:00:18.498Z,11.00
2018-11-23T15:02:48.480Z,10.97
2018-11-23T15:05:17.753Z,11.13
2018-11-23T15:07:46.817Z,11.53
2018-11-23T15:10:18.090Z,11.53
2018-11-23T15:12:47.757Z,12.00
2018-11-23T15:15:17.914Z,11.77
2018-11-23T15:17:47.611Z,11.70
2018-11-23T15:20:19.103Z,12.23
2018-11-23T15:22:49.236Z,12.77
2018-11-23T15:25:17.940Z,11.40
2018-11-23T15:27:46.670Z,10.83
2018-11-23T15:30:19.910Z,12.17
2018-11-23T15:32:48.938Z,12.93
2018-11-23T15:35:17.821Z,12.60
2018-11-23T15:37:46.827Z,14.40
2018-11-23T15:40:18.069Z,12.43
2018-11-23T15:42:47.414Z,12.37
2018-11-23T15:45:18.549Z,11.97
2018-11-23T15:47:47.538Z,12.20
2018-11-23T15:50:18.643Z,13.20
2018-11-23T15:52:47.846Z,12.97
2018-11-23T15:55:19.183Z,12.83
2018-11-23T15:57:48.709Z,14.37
2018-11-23T16:00:23.910Z,16.27
2018-11-23T16:02:52.778Z,32.57
2018-11-23T16:05:21.891Z,30.93
2018-11-23T16:07:51.207Z,30.70
2018-11-23T16:10:23.411Z,30.83
2018-11-23T16:12:53.327Z,28.17
2018-11-23T16:15:22.840Z,28.97
2018-11-23T16:17:52.218Z,27.93
2018-11-23T16:20:23.902Z,26.87
2018-11-23T16:22:53.898Z,27.30
2018-11-23T16:25:22.915Z,27.93
2018-11-23T16:27:53.310Z,28.77
2018-11-23T16:30:23.273Z,31.50
2018-11-23T16:32:53.246Z,29.93
2018-11-23T16:35:23.230Z,31.10
2018-11-23T16:37:52.904Z,30.53
2018-11-23T16:40:23.017Z,29.43
2018-11-23T16:42:52.338Z,27.63
2018-11-23T16:45:26.939Z,28.00
2018-11-23T16:47:56.326Z,25.40
2018-11-23T16:50:25.400Z,25.13
2018-11-23T16:52:54.331Z,24.77
2018-11-23T16:55:23.604Z,25.27
2018-11-23T16:57:54.284Z,26.33
2018-11-23T17:00:24.017Z,27.87
2018-11-23T17:02:53.292Z,30.00
2018-11-23T17:05:24.781Z,28.37
2018-11-23T17:07:53.729Z,30.37
2018-11-23T17:10:22.538Z,25.17
2018-11-23T17:12:51.305Z,23.63
2018-11-23T17:15:21.426Z,27.03
2018-11-23T17:17:50.269Z,29.37
2018-11-23T17:20:21.502Z,29.37
2018-11-23T17:22:51.069Z,22.67
2018-11-23T17:25:20.951Z,22.53
2018-11-23T17:27:50.001Z,24.70
2018-11-23T17:30:22.286Z,25.97
2018-11-23T17:32:51.005Z,24.17
2018-11-23T17:35:19.852Z,26.37
2018-11-23T17:37:48.645Z,30.40
2018-11-23T17:40:18.687Z,32.80
2018-11-23T17:42:47.524Z,35.33
2018-11-23T17:45:20.870Z,39.23
2018-11-23T17:47:51.027Z,41.77
2018-11-23T17:50:21.167Z,46.63
2018-11-23T17:52:50.337Z,45.20
2018-11-23T17:55:19.045Z,45.23
2018-11-23T17:57:48.252Z,44.67
2018-11-23T18:00:21.428Z,43.07
2018-11-23T18:02:51.093Z,39.83
2018-11-23T18:05:20.533Z,35.40
2018-11-23T18:07:49.570Z,36.13
2018-11-23T18:10:20.658Z,35.57
2018-11-23T18:12:49.669Z,32.40
2018-11-23T18:15:20.721Z,33.43
2018-11-23T18:17:50.424Z,31.13
2018-11-23T18:20:20.410Z,32.53
2018-11-23T18:22:49.736Z,34.83
2018-11-23T18:25:20.705Z,33.70
2018-11-23T18:27:49.561Z,34.63
2018-11-23T18:30:18.332Z,35.17
2018-11-23T18:32:47.071Z,35.03
2018-11-23T18:35:15.728Z,34.83
2018-11-23T18:37:44.634Z,38.33
2018-11-23T18:40:13.831Z,39.77
2018-11-23T18:42:42.579Z,39.37
2018-11-23T18:45:13.126Z,39.53
2018-11-23T18:47:42.662Z,36.43
2018-11-23T18:50:14.534Z,37.33
2018-11-23T18:52:43.197Z,35.57
2018-11-23T18:55:17.995Z,30.23
2018-11-23T18:57:41.702Z,31.27
2018-11-23T19:00:12.711Z,28.23
2018-11-23T19:02:41.756Z,26.77
2018-11-23T19:05:14.844Z,27.87
2018-11-23T19:07:43.559Z,26.67
2018-11-23T19:10:13.420Z,27.80
2018-11-23T19:12:42.205Z,23.90
2018-11-23T19:15:14.551Z,27.83
2018-11-23T19:17:43.454Z,31.10
2018-11-23T19:20:20.507Z,32.60
2018-11-23T19:22:50.163Z,39.37
2018-11-23T19:25:18.820Z,38.37
2018-11-23T19:27:47.701Z,40.73
2018-11-23T19:30:17.445Z,39.00
2018-11-23T19:32:46.140Z,38.47
2018-11-23T19:35:15.018Z,37.20
2018-11-23T19:37:43.781Z,38.43
2018-11-23T19:40:13.620Z,52.17
2018-11-23T19:42:42.785Z,55.53
2018-11-23T19:45:14.194Z,51.07
2018-11-23T19:47:43.150Z,29.67
2018-11-23T19:50:16.086Z,26.47
2018-11-23T19:52:44.905Z,26.63
2018-11-23T19:55:14.533Z,19.17
2018-11-23T19:57:43.389Z,17.20
2018-11-23T20:00:27.338Z,16.97
2018-11-23T20:02:56.106Z,16.20
2018-11-23T20:05:24.942Z,21.50
2018-11-23T20:07:54.772Z,19.80
2018-11-23T20:10:23.865Z,15.97
2018-11-23T20:12:53.782Z,17.40
2018-11-23T20:15:22.657Z,16.63
2018-11-23T20:17:51.515Z,16.20
2018-11-23T20:20:20.366Z,19.53
2018-11-23T20:22:49.829Z,15.43
2018-11-23T20:25:19.395Z,13.07
2018-11-23T20:27:49.183Z,15.63
2018-11-23T20:30:18.698Z,17.10
2018-11-23T20:32:47.545Z,15.70
2018-11-23T20:35:18.276Z,16.00
2018-11-23T20:37:46.959Z,16.33
2018-11-23T20:40:18.449Z,18.40
2018-11-23T20:42:47.201Z,17.47
2018-11-23T20:45:15.867Z,18.13
2018-11-23T20:47:44.644Z,20.90
2018-11-23T20:50:15.358Z,18.53
2018-11-23T20:52:44.064Z,19.10
2018-11-23T20:55:17.761Z,19.87
2018-11-23T20:57:46.658Z,20.03
2018-11-23T21:00:16.331Z,18.40
2018-11-23T21:02:45.647Z,16.80
2018-11-23T21:05:15.323Z,16.97
2018-11-23T21:07:43.997Z,14.43
2018-11-23T21:10:20.492Z,14.07
2018-11-23T21:12:44.688Z,15.40
2018-11-23T21:15:16.573Z,14.90
2018-11-23T21:17:45.262Z,16.30
2018-11-23T21:20:14.526Z,17.63
2018-11-23T21:22:43.271Z,19.07
2018-11-23T21:25:12.137Z,19.70
2018-11-23T21:27:40.922Z,18.53
2018-11-23T21:30:15.571Z,18.90
2018-11-23T21:32:44.489Z,19.00
2018-11-23T21:35:13.358Z,18.67
2018-11-23T21:37:42.183Z,18.30
2018-11-23T21:40:12.799Z,16.77
2018-11-23T21:42:41.548Z,15.33
2018-11-23T21:45:12.261Z,17.33
2018-11-23T21:47:41.276Z,13.43
2018-11-23T21:50:12.279Z,14.57
2018-11-23T21:52:41.006Z,15.17
2018-11-23T21:55:14.942Z,14.40
2018-11-23T21:57:43.827Z,15.03
2018-11-23T22:00:14.438Z,14.47
2018-11-23T22:02:43.188Z,14.70
2018-11-23T22:05:12.164Z,14.23
2018-11-23T22:07:41.227Z,14.20
2018-11-23T22:10:14.186Z,12.93
2018-11-23T22:12:43.393Z,14.37
2018-11-23T22:15:16.370Z,15.60
2018-11-23T22:17:45.222Z,19.77
2018-11-23T22:20:16.014Z,16.10
2018-11-23T22:22:44.922Z,15.40
2018-11-23T22:25:15.770Z,16.83
2018-11-23T22:27:44.569Z,13.57
2018-11-23T22:30:15.547Z,11.57
2018-11-23T22:32:44.292Z,14.70
2018-11-23T22:35:13.559Z,17.73
2018-11-23T22:37:42.422Z,17.67
2018-11-23T22:40:14.128Z,19.30
2018-11-23T22:42:44.154Z,18.83
2018-11-23T22:45:13.686Z,18.57
2018-11-23T22:47:42.488Z,17.63
2018-11-23T22:50:19.548Z,16.97
2018-11-23T22:52:48.445Z,15.77
2018-11-23T22:55:17.760Z,14.60
2018-11-23T22:57:46.559Z,15.50
2018-11-23T23:00:22.486Z,13.80
2018-11-23T23:02:51.415Z,14.73
2018-11-23T23:05:21.960Z,14.43
2018-11-23T23:07:50.972Z,14.87
2018-11-23T23:10:19.764Z,14.40
2018-11-23T23:12:48.566Z,12.87
2018-11-23T23:15:17.336Z,11.80
2018-11-23T23:17:46.107Z,12.63
2018-11-23T23:20:17.108Z,12.10
2018-11-23T23:22:45.911Z,11.57
2018-11-23T23:25:14.618Z,10.97
2018-11-23T23:27:43.484Z,11.97
2018-11-23T23:30:14.211Z,12.57
2018-11-23T23:32:42.990Z,11.43
2018-11-23T23:35:12.788Z,11.33
2018-11-23T23:37:41.646Z,11.40
2018-11-23T23:40:11.535Z,11.10
2018-11-23T23:42:40.579Z,11.60
2018-11-23T23:45:10.955Z,10.83
2018-11-23T23:47:39.936Z,10.90
2018-11-23T23:50:16.337Z,10.47
2018-11-23T23:52:45.065Z,9.10
2018-11-23T23:55:13.998Z,9.23
2018-11-23T23:57:44.193Z,8.50
